UAL Aberdeen — PBHZ — position and weather

sailwx.info

Track history (hours):
 
Tides and Currents Weather Stations Pressure Air Temp Water Temp Dewpoint Dewpoint Depression Visibility Wind Speed Wind Dir Waves Ship Positions

UAL Aberdeen

Last reported at 2015-Jul-05 13:15 UTC. Time now 2015-Jul-06 07:11 UTC.
Position N 38°42' E 019°43'.

Length 129 m; beam 17 m.

Type: Cargo ship. MMSI: 244093964.

Date/timePositionNaut miles runAvg speedWind from/ knotsBaromVisibWave heightAir tempDewpointWater temp
2015-Jul-05 13:15N 38°42' E 019°43'1112.4
2015-Jul-05 12:23N 38°51' E 019°37'1212.9
2015-Jul-05 11:27N 39°02' E 019°30'  
2015-Jun-30 17:31N 37°15' E 016°08'1111.8
2015-Jun-30 16:33N 37°06' E 015°59'1212.0
2015-Jun-30 15:33N 36°57' E 015°49'1312.3
2015-Jun-30 14:32N 36°47' E 015°39'1212.4
2015-Jun-30 13:33N 36°37' E 015°30'2415.1
2015-Jun-30 12:00N 36°24' E 015°06'511.2 270 / 21017.910.8 22.2
2015-Jun-30 11:32N 36°28' E 015°02'1212.4
2015-Jun-30 10:33N 36°28' E 014°47'1312.6
2015-Jun-30 09:33N 36°29' E 014°32'1312.6
2015-Jun-30 08:33N 36°32' E 014°17'1312.9
2015-Jun-30 07:33N 36°35' E 014°01'1313.0
2015-Jun-30 06:33N 36°39' E 013°46'1313.4
2015-Jun-30 05:33N 36°43' E 013°30'1413.8
2015-Jun-30 04:33N 36°48' E 013°13'1313.3
2015-Jun-30 03:33N 36°52' E 012°58'1313.1
2015-Jun-30 02:33N 36°57' E 012°42'1312.5
2015-Jun-30 01:33N 36°60' E 012°27'1312.6
2015-Jun-30 00:33N 37°03' E 012°12'1312.5
2015-Jun-29 23:33N 37°08' E 011°57'1313.0
2015-Jun-29 22:33N 37°12' E 011°42'1313.1
2015-Jun-29 21:33N 37°16' E 011°26'1313.2
2015-Jun-29 20:33N 37°22' E 011°11'1413.6
2015-Jun-29 19:33N 37°27' E 010°55'1413.8
2015-Jun-29 18:33N 37°30' E 010°38'1713.5
2015-Jun-29 17:17N 37°34' E 010°17'1213.4
2015-Jun-29 16:24N 37°35' E 010°02'2713.4
2015-Jun-29 14:21N 37°38' E 009°28'1013.0
2015-Jun-29 13:33N 37°40' E 009°15'1312.8
2015-Jun-29 12:33N 37°41' E 008°59'1018.1
2015-Jun-29 12:00N 37°36' E 008°48'14412.1 999 / 11018.310.8 25.1
2015-Jun-29 00:09N 37°22' E 005°48'712.7
2015-Jun-28 23:33N 37°21' E 005°38'1312.7
2015-Jun-28 22:33N 37°19' E 005°23'2713.4
2015-Jun-28 20:32N 37°15' E 004°49'1313.4
2015-Jun-28 19:33N 37°14' E 004°33'1313.0
2015-Jun-28 18:33N 37°11' E 004°17'1212.3
2015-Jun-28 17:33N 37°10' E 004°01'1212.4
2015-Jun-28 16:33N 37°08' E 003°46'1212.1
2015-Jun-28 15:33N 37°06' E 003°31'1312.7
2015-Jun-28 14:33N 37°04' E 003°15'1313.0
2015-Jun-28 13:33N 37°02' E 002°59'1313.2
2015-Jun-28 12:33N 37°00' E 002°42'1312.9
2015-Jun-28 11:33N 36°58' E 002°27'1313.0
2015-Jun-28 10:33N 36°56' E 002°11'1313.2
2015-Jun-28 09:34N 36°53' E 001°55'1313.3
2015-Jun-28 08:33N 36°51' E 001°38'1413.2
2015-Jun-28 07:31N 36°49' E 001°21'1313.0
2015-Jun-28 06:33N 36°47' E 001°06'1313.2
2015-Jun-28 05:33N 36°45' E 000°50'1413.9
2015-Jun-28 04:33N 36°42' E 000°32'1413.6
2015-Jun-28 03:34N 36°40' E 000°16'1413.4
2015-Jun-28 02:33N 36°37' W 000°01'1313.0
2015-Jun-28 01:33N 36°35' W 000°17'1513.0
2015-Jun-28 00:26N 36°33' W 000°35'1213.2
2015-Jun-27 23:33N 36°31' W 000°49'1313.1
2015-Jun-27 22:34N 36°30' W 001°05'1313.2
2015-Jun-27 21:33N 36°28' W 001°21'1613.1
2015-Jun-27 20:19N 36°25' W 001°41'1012.9
2015-Jun-27 19:34N 36°23' W 001°53'1312.8
2015-Jun-27 18:34N 36°22' W 002°09'1212.3
2015-Jun-27 17:34N 36°20' W 002°24'1312.6
2015-Jun-27 16:34N 36°17' W 002°39'1313.1
2015-Jun-27 15:33N 36°15' W 002°55'1313.3
2015-Jun-27 14:33N 36°12' W 003°11'9913.4
2015-Jun-27 07:10N 35°56' W 005°12'610.0
2015-Jun-27 06:33N 35°54' W 005°19'0 0.2
2015-Jun-27 05:34N 35°54' W 005°18'0 0.0
2015-Jun-27 04:34N 35°54' W 005°18'0 0.0
2015-Jun-27 03:33N 35°54' W 005°18'0 0.0
2015-Jun-27 02:33N 35°54' W 005°18'0 0.0
2015-Jun-27 01:33N 35°54' W 005°18'1 1.2
2015-Jun-27 00:34N 35°55' W 005°19'7 6.8
2015-Jun-26 23:32N 35°57' W 005°27'11311.2
2015-Jun-26 13:24N 36°13' W 007°46'1212.4
2015-Jun-26 12:26N 36°17' W 008°00'4012.8
2015-Jun-26 09:17N 36°27' W 008°49'912.6
2015-Jun-26 08:34N 36°29' W 008°60'1312.6
2015-Jun-26 07:34N 36°33' W 009°15'1212.3
2015-Jun-26 06:34N 36°40' W 009°27'1212.2
2015-Jun-26 05:33N 36°51' W 009°35'1312.9
2015-Jun-26 04:33N 37°03' W 009°38'1312.9
2015-Jun-26 03:33N 37°16' W 009°41'1313.0
2015-Jun-26 02:34N 37°29' W 009°45'1312.8
2015-Jun-26 01:34N 37°41' W 009°49'1313.4
2015-Jun-26 00:33N 37°54' W 009°52'1313.3
2015-Jun-25 23:33N 38°07' W 009°55'1313.0
2015-Jun-25 22:33N 38°20' W 009°59'1313.0
2015-Jun-25 21:33N 38°33' W 010°03'1313.0
2015-Jun-25 20:34N 38°45' W 010°06'1313.2
2015-Jun-25 19:34N 38°59' W 010°06'1312.7
2015-Jun-25 18:33N 39°11' W 010°06'1313.0
2015-Jun-25 17:33N 39°24' W 010°06'1313.0
2015-Jun-25 16:33N 39°37' W 010°05'  
Track history (hours):
 
Tides and Currents Weather Stations Pressure Air Temp Water Temp Dewpoint Dewpoint Depression Visibility Wind Speed Wind Dir Waves Ship Positions

UAL Aberdeen

Last reported at 2015-Jul-05 13:15 UTC. Time now 2015-Jul-06 07:11 UTC.
Position N 38°42' E 019°43'.

Length 129 m; beam 17 m.

Type: Cargo ship. MMSI: 244093964.

Date/timePositionNaut miles runAvg speedWind from/ knotsBaromVisibWave heightAir tempDewpointWater temp
2015-Jul-05 13:15N 38°42' E 019°43'1112.4
2015-Jul-05 12:23N 38°51' E 019°37'1212.9
2015-Jul-05 11:27N 39°02' E 019°30'  
2015-Jun-30 17:31N 37°15' E 016°08'1111.8
2015-Jun-30 16:33N 37°06' E 015°59'1212.0
2015-Jun-30 15:33N 36°57' E 015°49'1312.3
2015-Jun-30 14:32N 36°47' E 015°39'1212.4
2015-Jun-30 13:33N 36°37' E 015°30'2415.1
2015-Jun-30 12:00N 36°24' E 015°06'511.2 270 / 21017.910.8 22.2
2015-Jun-30 11:32N 36°28' E 015°02'1212.4
2015-Jun-30 10:33N 36°28' E 014°47'1312.6
2015-Jun-30 09:33N 36°29' E 014°32'1312.6
2015-Jun-30 08:33N 36°32' E 014°17'1312.9
2015-Jun-30 07:33N 36°35' E 014°01'1313.0
2015-Jun-30 06:33N 36°39' E 013°46'1313.4
2015-Jun-30 05:33N 36°43' E 013°30'1413.8
2015-Jun-30 04:33N 36°48' E 013°13'1313.3
2015-Jun-30 03:33N 36°52' E 012°58'1313.1
2015-Jun-30 02:33N 36°57' E 012°42'1312.5
2015-Jun-30 01:33N 36°60' E 012°27'1312.6
2015-Jun-30 00:33N 37°03' E 012°12'1312.5
2015-Jun-29 23:33N 37°08' E 011°57'1313.0
2015-Jun-29 22:33N 37°12' E 011°42'1313.1
2015-Jun-29 21:33N 37°16' E 011°26'1313.2
2015-Jun-29 20:33N 37°22' E 011°11'1413.6
2015-Jun-29 19:33N 37°27' E 010°55'1413.8
2015-Jun-29 18:33N 37°30' E 010°38'1713.5
2015-Jun-29 17:17N 37°34' E 010°17'1213.4
2015-Jun-29 16:24N 37°35' E 010°02'2713.4
2015-Jun-29 14:21N 37°38' E 009°28'1013.0
2015-Jun-29 13:33N 37°40' E 009°15'1312.8
2015-Jun-29 12:33N 37°41' E 008°59'1018.1
2015-Jun-29 12:00N 37°36' E 008°48'14412.1 999 / 11018.310.8 25.1
2015-Jun-29 00:09N 37°22' E 005°48'712.7
2015-Jun-28 23:33N 37°21' E 005°38'1312.7
2015-Jun-28 22:33N 37°19' E 005°23'2713.4
2015-Jun-28 20:32N 37°15' E 004°49'1313.4
2015-Jun-28 19:33N 37°14' E 004°33'1313.0
2015-Jun-28 18:33N 37°11' E 004°17'1212.3
2015-Jun-28 17:33N 37°10' E 004°01'1212.4
2015-Jun-28 16:33N 37°08' E 003°46'1212.1
2015-Jun-28 15:33N 37°06' E 003°31'1312.7
2015-Jun-28 14:33N 37°04' E 003°15'1313.0
2015-Jun-28 13:33N 37°02' E 002°59'1313.2
2015-Jun-28 12:33N 37°00' E 002°42'1312.9
2015-Jun-28 11:33N 36°58' E 002°27'1313.0
2015-Jun-28 10:33N 36°56' E 002°11'1313.2
2015-Jun-28 09:34N 36°53' E 001°55'1313.3
2015-Jun-28 08:33N 36°51' E 001°38'1413.2
2015-Jun-28 07:31N 36°49' E 001°21'1313.0
2015-Jun-28 06:33N 36°47' E 001°06'1313.2
2015-Jun-28 05:33N 36°45' E 000°50'1413.9
2015-Jun-28 04:33N 36°42' E 000°32'1413.6
2015-Jun-28 03:34N 36°40' E 000°16'1413.4
2015-Jun-28 02:33N 36°37' W 000°01'1313.0
2015-Jun-28 01:33N 36°35' W 000°17'1513.0
2015-Jun-28 00:26N 36°33' W 000°35'1213.2
2015-Jun-27 23:33N 36°31' W 000°49'1313.1
2015-Jun-27 22:34N 36°30' W 001°05'1313.2
2015-Jun-27 21:33N 36°28' W 001°21'1613.1
2015-Jun-27 20:19N 36°25' W 001°41'1012.9
2015-Jun-27 19:34N 36°23' W 001°53'1312.8
2015-Jun-27 18:34N 36°22' W 002°09'1212.3
2015-Jun-27 17:34N 36°20' W 002°24'1312.6
2015-Jun-27 16:34N 36°17' W 002°39'1313.1
2015-Jun-27 15:33N 36°15' W 002°55'1313.3
2015-Jun-27 14:33N 36°12' W 003°11'9913.4
2015-Jun-27 07:10N 35°56' W 005°12'610.0
2015-Jun-27 06:33N 35°54' W 005°19'0 0.2
2015-Jun-27 05:34N 35°54' W 005°18'0 0.0
2015-Jun-27 04:34N 35°54' W 005°18'0 0.0
2015-Jun-27 03:33N 35°54' W 005°18'0 0.0
2015-Jun-27 02:33N 35°54' W 005°18'0 0.0
2015-Jun-27 01:33N 35°54' W 005°18'1 1.2
2015-Jun-27 00:34N 35°55' W 005°19'7 6.8
2015-Jun-26 23:32N 35°57' W 005°27'11311.2
2015-Jun-26 13:24N 36°13' W 007°46'1212.4
2015-Jun-26 12:26N 36°17' W 008°00'4012.8
2015-Jun-26 09:17N 36°27' W 008°49'912.6
2015-Jun-26 08:34N 36°29' W 008°60'1312.6
2015-Jun-26 07:34N 36°33' W 009°15'1212.3
2015-Jun-26 06:34N 36°40' W 009°27'1212.2
2015-Jun-26 05:33N 36°51' W 009°35'1312.9
2015-Jun-26 04:33N 37°03' W 009°38'1312.9
2015-Jun-26 03:33N 37°16' W 009°41'1313.0
2015-Jun-26 02:34N 37°29' W 009°45'1312.8
2015-Jun-26 01:34N 37°41' W 009°49'1313.4
2015-Jun-26 00:33N 37°54' W 009°52'1313.3
2015-Jun-25 23:33N 38°07' W 009°55'1313.0
2015-Jun-25 22:33N 38°20' W 009°59'1313.0
2015-Jun-25 21:33N 38°33' W 010°03'1313.0
2015-Jun-25 20:34N 38°45' W 010°06'1313.2
2015-Jun-25 19:34N 38°59' W 010°06'1312.7
2015-Jun-25 18:33N 39°11' W 010°06'1313.0
2015-Jun-25 17:33N 39°24' W 010°06'1313.0
2015-Jun-25 16:33N 39°37' W 010°05'  

Dump ship's entire track history